createdAt,value
2019-01-13T00:01:43.343Z,9.00
2019-01-13T00:04:13.285Z,8.90
2019-01-13T00:06:42.970Z,8.90
2019-01-13T00:09:12.877Z,8.90
2019-01-13T00:11:42.625Z,8.90
2019-01-13T00:14:12.379Z,8.90
2019-01-13T00:16:42.129Z,8.90
2019-01-13T00:19:11.890Z,8.90
2019-01-13T00:21:41.686Z,8.90
2019-01-13T00:24:11.514Z,8.90
2019-01-13T00:26:41.265Z,8.90
2019-01-13T00:29:11.010Z,8.90
2019-01-13T00:31:40.673Z,8.90
2019-01-13T00:34:10.358Z,8.90
2019-01-13T00:36:40.042Z,9.00
2019-01-13T00:39:09.903Z,8.90
2019-01-13T00:41:39.642Z,8.90
2019-01-13T00:44:09.469Z,8.90
2019-01-13T00:46:39.499Z,8.90
2019-01-13T00:49:09.266Z,8.90
2019-01-13T00:51:39.109Z,8.90
2019-01-13T00:54:08.871Z,8.90
2019-01-13T00:56:38.702Z,8.90
2019-01-13T00:59:08.461Z,8.90
2019-01-13T01:01:38.342Z,8.90
2019-01-13T01:04:08.286Z,8.90
2019-01-13T01:06:38.198Z,8.90
2019-01-13T01:09:09.994Z,8.90
2019-01-13T01:11:39.829Z,8.90
2019-01-13T01:14:09.662Z,8.90
2019-01-13T01:16:39.431Z,9.00
2019-01-13T01:19:09.222Z,8.90
2019-01-13T01:21:38.942Z,9.00
2019-01-13T01:24:08.615Z,9.00
2019-01-13T01:26:38.646Z,9.00
2019-01-13T01:29:08.472Z,9.00
2019-01-13T01:31:38.230Z,9.00
2019-01-13T01:34:08.149Z,9.00
2019-01-13T01:36:37.894Z,9.10
2019-01-13T01:39:08.453Z,9.10
2019-01-13T01:41:38.318Z,9.10
2019-01-13T01:44:08.011Z,9.10
2019-01-13T01:46:37.774Z,9.10
2019-01-13T01:49:07.461Z,9.10
2019-01-13T01:51:37.220Z,9.10
2019-01-13T01:54:06.902Z,9.10
2019-01-13T01:56:36.598Z,9.10
2019-01-13T01:59:06.342Z,9.10
2019-01-13T02:01:36.177Z,9.10
2019-01-13T02:04:05.930Z,9.10
2019-01-13T02:06:35.899Z,9.10
2019-01-13T02:09:07.497Z,9.20
2019-01-13T02:11:37.262Z,9.10
2019-01-13T02:14:07.991Z,9.10
2019-01-13T02:16:37.866Z,9.10
2019-01-13T02:19:08.534Z,9.10
2019-01-13T02:21:38.378Z,9.10
2019-01-13T02:24:08.122Z,9.10
2019-01-13T02:26:37.891Z,9.10
2019-01-13T02:29:07.582Z,9.00
2019-01-13T02:31:37.270Z,9.00
2019-01-13T02:34:10.128Z,9.00
2019-01-13T02:36:39.973Z,9.00
2019-01-13T02:39:09.791Z,9.00
2019-01-13T02:41:39.554Z,8.90
2019-01-13T02:44:09.344Z,8.90
2019-01-13T02:46:39.056Z,8.90
2019-01-13T02:49:08.880Z,8.90
2019-01-13T02:51:38.575Z,9.00
2019-01-13T02:54:08.254Z,8.90
2019-01-13T02:56:38.023Z,8.90
2019-01-13T02:59:07.827Z,8.90
2019-01-13T03:01:37.607Z,9.00
2019-01-13T03:04:07.363Z,8.90
2019-01-13T03:06:37.051Z,8.90
2019-01-13T03:09:08.354Z,8.90
2019-01-13T03:11:38.185Z,8.90
2019-01-13T03:14:07.922Z,8.90
2019-01-13T03:16:37.697Z,8.90
2019-01-13T03:19:07.600Z,8.90
2019-01-13T03:21:37.582Z,8.90
2019-01-13T03:24:07.412Z,8.90
2019-01-13T03:26:37.090Z,8.90
2019-01-13T03:29:06.787Z,8.90
2019-01-13T03:31:36.547Z,8.90
2019-01-13T03:34:06.412Z,8.90
2019-01-13T03:36:36.083Z,8.90
2019-01-13T03:39:08.283Z,8.90
2019-01-13T03:41:38.121Z,8.90
2019-01-13T03:44:07.966Z,8.90
2019-01-13T03:46:37.646Z,8.90
2019-01-13T03:49:07.407Z,8.90
2019-01-13T03:51:37.078Z,8.90
2019-01-13T03:54:06.929Z,8.90
2019-01-13T03:56:36.602Z,8.90
2019-01-13T03:59:06.306Z,8.90
2019-01-13T04:01:36.002Z,8.90
2019-01-13T04:04:05.882Z,8.90
2019-01-13T04:06:35.555Z,8.90
2019-01-13T04:09:08.038Z,8.90
2019-01-13T04:11:37.773Z,9.00
2019-01-13T04:14:07.457Z,9.00
2019-01-13T04:16:37.466Z,8.90
2019-01-13T04:19:07.275Z,9.00
2019-01-13T04:21:37.055Z,9.00
2019-01-13T04:24:06.738Z,9.00
2019-01-13T04:26:36.413Z,8.90
2019-01-13T04:29:06.119Z,8.90
2019-01-13T04:31:35.783Z,8.90
2019-01-13T04:34:06.552Z,8.90
2019-01-13T04:36:36.242Z,8.90
2019-01-13T04:39:07.447Z,8.90
2019-01-13T04:41:37.202Z,9.00
2019-01-13T04:44:06.903Z,9.00
2019-01-13T04:46:38.564Z,9.00
2019-01-13T04:49:08.035Z,9.10
2019-01-13T04:51:37.721Z,9.00
2019-01-13T04:54:07.478Z,9.10
2019-01-13T04:56:37.157Z,9.10
2019-01-13T04:59:06.855Z,9.10
2019-01-13T05:01:36.940Z,9.10
2019-01-13T05:04:06.772Z,9.10
2019-01-13T05:06:36.606Z,9.10
2019-01-13T05:09:08.599Z,9.10
2019-01-13T05:11:38.351Z,9.10
2019-01-13T05:14:08.018Z,9.10
2019-01-13T05:16:37.703Z,9.10
2019-01-13T05:19:07.451Z,9.10
2019-01-13T05:21:37.142Z,9.10
2019-01-13T05:24:06.903Z,9.10
2019-01-13T05:26:36.578Z,9.10
2019-01-13T05:29:06.341Z,9.10
2019-01-13T05:31:41.978Z,9.20
2019-01-13T05:34:08.448Z,9.10
2019-01-13T05:36:38.202Z,9.10
2019-01-13T05:39:08.531Z,9.10
2019-01-13T05:41:38.214Z,9.10
2019-01-13T05:44:07.882Z,9.10
2019-01-13T05:46:37.575Z,9.10
2019-01-13T05:49:07.250Z,9.10
2019-01-13T05:51:36.988Z,9.20
2019-01-13T05:54:06.658Z,9.20
2019-01-13T05:56:36.350Z,9.10
2019-01-13T05:59:06.037Z,9.20
2019-01-13T06:01:35.979Z,9.20
2019-01-13T06:04:06.291Z,9.20
2019-01-13T06:06:36.070Z,9.20
2019-01-13T06:09:08.077Z,9.20
2019-01-13T06:11:37.764Z,9.30
2019-01-13T06:14:08.530Z,9.30
2019-01-13T06:16:38.230Z,9.30
2019-01-13T06:19:07.990Z,9.30
2019-01-13T06:21:37.742Z,9.30
2019-01-13T06:24:07.431Z,9.30
2019-01-13T06:26:37.112Z,9.30
2019-01-13T06:29:06.815Z,9.30
2019-01-13T06:31:36.519Z,9.30
2019-01-13T06:34:06.193Z,9.30
2019-01-13T06:36:35.888Z,9.30
2019-01-13T06:39:07.914Z,9.30
2019-01-13T06:41:37.690Z,9.30
2019-01-13T06:44:07.434Z,9.30
2019-01-13T06:46:37.136Z,9.30
2019-01-13T06:49:06.827Z,9.30
2019-01-13T06:51:36.494Z,9.30
2019-01-13T06:54:06.306Z,9.40
2019-01-13T06:56:35.980Z,9.30
2019-01-13T06:59:05.731Z,9.30
2019-01-13T07:01:35.419Z,9.30
2019-01-13T07:04:05.250Z,9.30
2019-01-13T07:06:34.954Z,9.30
2019-01-13T07:09:07.294Z,9.40
2019-01-13T07:11:37.018Z,9.30
2019-01-13T07:14:07.389Z,9.30
2019-01-13T07:16:37.239Z,9.30
2019-01-13T07:19:07.020Z,9.30
2019-01-13T07:21:36.690Z,9.30
2019-01-13T07:24:06.531Z,9.30
2019-01-13T07:26:36.223Z,9.30
2019-01-13T07:29:05.898Z,9.30
2019-01-13T07:31:35.619Z,9.30
2019-01-13T07:34:05.301Z,9.30
2019-01-13T07:36:35.054Z,9.40
2019-01-13T07:39:07.522Z,9.40
2019-01-13T07:41:37.293Z,9.40
2019-01-13T07:44:07.042Z,9.40
2019-01-13T07:46:36.710Z,9.40
2019-01-13T07:49:06.554Z,9.40
2019-01-13T07:51:36.234Z,9.40
2019-01-13T07:54:06.003Z,9.40
2019-01-13T07:56:35.681Z,9.40
2019-01-13T07:59:05.545Z,9.40
2019-01-13T08:01:35.305Z,9.50
2019-01-13T08:04:05.765Z,9.40
2019-01-13T08:06:36.518Z,9.40
2019-01-13T08:09:08.550Z,9.40
2019-01-13T08:11:38.390Z,9.50
2019-01-13T08:14:08.146Z,9.50
2019-01-13T08:16:37.825Z,9.50
2019-01-13T08:19:07.610Z,9.50
2019-01-13T08:21:37.381Z,9.50
2019-01-13T08:24:07.375Z,9.50
2019-01-13T08:26:37.149Z,9.60
2019-01-13T08:29:06.926Z,9.60
2019-01-13T08:31:36.839Z,9.60
2019-01-13T08:34:06.526Z,9.60
2019-01-13T08:36:36.233Z,9.60
2019-01-13T08:39:07.989Z,9.60
2019-01-13T08:41:37.826Z,9.70
2019-01-13T08:44:07.642Z,9.70
2019-01-13T08:46:37.322Z,9.70
2019-01-13T08:49:07.114Z,9.70
2019-01-13T08:51:36.802Z,9.70
2019-01-13T08:54:06.562Z,9.70
2019-01-13T08:56:36.495Z,9.70
2019-01-13T08:59:06.253Z,9.70
2019-01-13T09:01:36.090Z,9.70
2019-01-13T09:04:05.868Z,9.70
2019-01-13T09:06:35.762Z,9.80
2019-01-13T09:09:08.504Z,9.80
2019-01-13T09:11:40.470Z,9.80
2019-01-13T09:14:11.251Z,9.80
2019-01-13T09:16:40.954Z,9.80
2019-01-13T09:19:10.744Z,9.70
2019-01-13T09:21:40.667Z,9.70
2019-01-13T09:24:10.414Z,9.80
2019-01-13T09:26:40.137Z,9.80
2019-01-13T09:29:09.846Z,9.80
2019-01-13T09:31:39.600Z,9.80
2019-01-13T09:34:09.354Z,9.80
2019-01-13T09:36:39.158Z,9.80
2019-01-13T09:39:09.099Z,9.90
2019-01-13T09:41:38.860Z,9.90
2019-01-13T09:44:08.549Z,9.90
2019-01-13T09:46:38.351Z,9.90
2019-01-13T09:49:08.200Z,9.90
2019-01-13T09:51:37.894Z,10.00
2019-01-13T09:54:07.594Z,10.00
2019-01-13T09:56:37.694Z,10.00
2019-01-13T09:59:07.586Z,10.00
2019-01-13T10:01:38.387Z,10.00
2019-01-13T10:04:08.094Z,10.00
2019-01-13T10:06:37.886Z,10.00
2019-01-13T10:09:09.103Z,10.00
2019-01-13T10:11:38.846Z,10.00
2019-01-13T10:14:08.830Z,10.00
2019-01-13T10:16:38.607Z,10.00
2019-01-13T10:19:08.296Z,10.00
2019-01-13T10:21:38.079Z,10.00
2019-01-13T10:24:07.842Z,10.00
2019-01-13T10:26:37.678Z,10.00
2019-01-13T10:29:07.570Z,10.10
2019-01-13T10:31:37.390Z,10.10
2019-01-13T10:34:07.163Z,10.10
2019-01-13T10:36:36.977Z,10.10
2019-01-13T10:39:08.531Z,10.10
2019-01-13T10:41:38.393Z,10.10
2019-01-13T10:44:08.159Z,10.10
2019-01-13T10:46:38.078Z,10.20
2019-01-13T10:49:07.959Z,10.20
2019-01-13T10:51:37.734Z,10.10
2019-01-13T10:54:09.297Z,10.20
2019-01-13T10:56:38.979Z,10.20
2019-01-13T10:59:08.659Z,10.20
2019-01-13T11:01:38.458Z,10.20
2019-01-13T11:04:08.314Z,10.20
2019-01-13T11:06:38.206Z,10.20
2019-01-13T11:09:13.162Z,10.20
2019-01-13T11:11:43.015Z,10.20
2019-01-13T11:14:12.862Z,10.20
2019-01-13T11:16:42.742Z,10.20
2019-01-13T11:19:12.421Z,10.20
2019-01-13T11:21:42.278Z,10.20
2019-01-13T11:24:12.127Z,10.20
2019-01-13T11:26:41.875Z,10.20
2019-01-13T11:29:11.566Z,10.20
2019-01-13T11:31:41.335Z,10.30
2019-01-13T11:34:11.067Z,10.30
2019-01-13T11:36:40.858Z,10.20
2019-01-13T11:39:11.076Z,10.20
2019-01-13T11:41:40.827Z,10.20
2019-01-13T11:44:10.514Z,10.20
2019-01-13T11:46:40.218Z,10.20
2019-01-13T11:49:10.050Z,10.20
2019-01-13T11:51:39.973Z,10.20
2019-01-13T11:54:09.815Z,10.20
2019-01-13T11:56:39.638Z,10.20
2019-01-13T11:59:09.423Z,10.20
2019-01-13T12:01:39.284Z,10.20
2019-01-13T12:04:09.138Z,10.20
2019-01-13T12:06:38.944Z,10.20
2019-01-13T12:09:09.040Z,10.20
2019-01-13T12:11:38.914Z,10.20
2019-01-13T12:14:08.686Z,10.20
2019-01-13T12:16:38.452Z,10.20
2019-01-13T12:19:09.218Z,10.20
2019-01-13T12:21:38.978Z,10.20
2019-01-13T12:24:08.830Z,10.20
2019-01-13T12:26:38.602Z,10.20
2019-01-13T12:29:08.394Z,10.20
2019-01-13T12:31:38.086Z,10.20
2019-01-13T12:34:07.818Z,10.20
2019-01-13T12:36:37.586Z,10.20
2019-01-13T12:39:10.826Z,10.20
2019-01-13T12:41:40.614Z,10.20
2019-01-13T12:44:10.437Z,10.20
2019-01-13T12:46:40.125Z,10.20
2019-01-13T12:49:09.886Z,10.20
2019-01-13T12:51:39.641Z,10.20
2019-01-13T12:54:09.422Z,10.20
2019-01-13T12:56:39.340Z,10.20
2019-01-13T12:59:09.157Z,10.20
2019-01-13T13:01:38.915Z,10.20
2019-01-13T13:04:08.651Z,10.20
2019-01-13T13:06:38.439Z,10.20
2019-01-13T13:09:09.554Z,10.10
2019-01-13T13:11:39.447Z,10.20
2019-01-13T13:14:09.232Z,10.20
2019-01-13T13:16:39.011Z,10.20
2019-01-13T13:19:08.688Z,10.20
2019-01-13T13:21:39.427Z,10.20
2019-01-13T13:24:09.252Z,10.20
2019-01-13T13:26:38.950Z,10.20
2019-01-13T13:29:08.631Z,10.20
2019-01-13T13:31:38.322Z,10.20
2019-01-13T13:34:08.080Z,10.30
2019-01-13T13:36:37.939Z,10.30
2019-01-13T13:39:09.738Z,10.30
2019-01-13T13:41:39.578Z,10.30
2019-01-13T13:44:09.409Z,10.40
2019-01-13T13:46:39.174Z,10.30
2019-01-13T13:49:08.858Z,10.40
2019-01-13T13:51:38.563Z,10.30
2019-01-13T13:54:08.249Z,10.30
2019-01-13T13:56:37.933Z,10.30
2019-01-13T13:59:07.619Z,10.40
2019-01-13T14:01:37.385Z,10.30
2019-01-13T14:04:07.057Z,10.40
2019-01-13T14:06:36.917Z,10.30
2019-01-13T14:09:08.987Z,10.40
2019-01-13T14:11:39.606Z,10.30
2019-01-13T14:14:09.298Z,10.30
2019-01-13T14:16:39.098Z,10.30
2019-01-13T14:19:08.822Z,10.30
2019-01-13T14:21:38.614Z,10.20
2019-01-13T14:24:08.434Z,10.20
2019-01-13T14:26:38.202Z,10.20
2019-01-13T14:29:07.958Z,10.10
2019-01-13T14:31:37.722Z,10.10
2019-01-13T14:34:07.486Z,10.10
2019-01-13T14:36:37.254Z,10.10
2019-01-13T14:39:08.855Z,10.10
2019-01-13T14:41:38.614Z,10.10
2019-01-13T14:44:08.310Z,10.10
2019-01-13T14:46:38.068Z,10.10
2019-01-13T14:49:07.865Z,10.10
2019-01-13T14:51:37.599Z,10.00
2019-01-13T14:54:07.374Z,10.00
2019-01-13T14:56:37.183Z,10.00
2019-01-13T14:59:07.049Z,10.00
2019-01-13T15:01:36.804Z,9.90
2019-01-13T15:04:06.465Z,9.90
2019-01-13T15:06:36.155Z,9.90
2019-01-13T15:09:09.818Z,9.90
2019-01-13T15:11:39.517Z,10.00
2019-01-13T15:14:09.385Z,10.00
2019-01-13T15:16:39.098Z,10.00
2019-01-13T15:19:08.946Z,10.10
2019-01-13T15:21:39.258Z,10.10
2019-01-13T15:24:10.157Z,10.10
2019-01-13T15:26:39.928Z,10.10
2019-01-13T15:29:09.739Z,10.20
2019-01-13T15:31:39.474Z,10.20
2019-01-13T15:34:09.182Z,10.20
2019-01-13T15:36:39.060Z,10.30
2019-01-13T15:39:09.403Z,10.30
2019-01-13T15:41:39.694Z,10.30
2019-01-13T15:44:09.449Z,10.30
2019-01-13T15:46:39.264Z,10.30
2019-01-13T15:49:09.797Z,10.30
2019-01-13T15:51:39.702Z,10.30
2019-01-13T15:54:10.438Z,10.30
2019-01-13T15:56:40.329Z,10.30
2019-01-13T15:59:10.310Z,10.30
2019-01-13T16:01:40.046Z,10.30
2019-01-13T16:04:14.584Z,10.30
2019-01-13T16:06:41.298Z,10.20
2019-01-13T16:09:11.162Z,9.90
2019-01-13T16:11:40.919Z,9.60
2019-01-13T16:14:10.702Z,9.60
2019-01-13T16:16:40.549Z,9.60
2019-01-13T16:19:10.249Z,9.50
2019-01-13T16:21:39.935Z,9.40
2019-01-13T16:24:09.630Z,9.30
2019-01-13T16:26:41.659Z,9.20
2019-01-13T16:29:11.391Z,9.20
2019-01-13T16:31:41.097Z,9.20
2019-01-13T16:34:10.874Z,9.20
2019-01-13T16:36:40.993Z,9.30
2019-01-13T16:39:10.686Z,9.20
2019-01-13T16:41:41.856Z,9.10
2019-01-13T16:44:11.598Z,9.00
2019-01-13T16:46:43.619Z,8.90
2019-01-13T16:49:12.803Z,8.90
2019-01-13T16:51:42.577Z,9.00
2019-01-13T16:54:12.398Z,9.10
2019-01-13T16:56:42.169Z,9.10
2019-01-13T16:59:11.854Z,9.10
2019-01-13T17:01:41.749Z,9.20
2019-01-13T17:04:11.427Z,9.20
2019-01-13T17:06:41.196Z,9.20
2019-01-13T17:09:11.867Z,9.20
2019-01-13T17:11:41.548Z,9.20
2019-01-13T17:14:11.249Z,9.30
2019-01-13T17:16:41.608Z,9.20
2019-01-13T17:19:11.365Z,9.20
2019-01-13T17:21:41.053Z,9.20
2019-01-13T17:24:11.691Z,9.20
2019-01-13T17:26:41.375Z,9.10
2019-01-13T17:29:11.242Z,9.10
2019-01-13T17:31:41.890Z,9.10
2019-01-13T17:34:11.615Z,9.10
2019-01-13T17:36:41.299Z,9.10
2019-01-13T17:39:11.078Z,9.10
2019-01-13T17:41:40.781Z,9.10
2019-01-13T17:44:10.510Z,9.10
2019-01-13T17:46:40.218Z,9.10
2019-01-13T17:49:09.944Z,9.10
2019-01-13T17:51:39.717Z,9.10
2019-01-13T17:54:09.542Z,9.10
2019-01-13T17:56:39.355Z,9.10
2019-01-13T17:59:09.047Z,9.10
2019-01-13T18:01:45.770Z,9.10
2019-01-13T18:04:15.680Z,9.10
2019-01-13T18:06:45.558Z,9.10
2019-01-13T18:09:15.298Z,9.10
2019-01-13T18:11:45.090Z,9.10
2019-01-13T18:14:15.081Z,9.10
2019-01-13T18:16:47.467Z,9.10
2019-01-13T18:19:17.306Z,9.10
2019-01-13T18:21:46.985Z,9.10
2019-01-13T18:24:16.723Z,9.00
2019-01-13T18:26:46.486Z,9.00
2019-01-13T18:29:16.250Z,9.00
2019-01-13T18:31:46.006Z,9.10
2019-01-13T18:34:15.714Z,9.10
2019-01-13T18:36:45.393Z,9.10
2019-01-13T18:39:15.081Z,9.00
2019-01-13T18:41:44.758Z,9.00
2019-01-13T18:44:14.621Z,9.00
2019-01-13T18:46:44.395Z,9.00
2019-01-13T18:49:14.467Z,9.00
2019-01-13T18:51:44.142Z,9.00
2019-01-13T18:54:13.974Z,8.90
2019-01-13T18:56:43.666Z,8.90
2019-01-13T18:59:13.494Z,8.90
2019-01-13T19:01:43.258Z,8.90
2019-01-13T19:04:12.942Z,8.90
2019-01-13T19:06:43.642Z,8.90
2019-01-13T19:09:16.226Z,8.90
2019-01-13T19:11:49.414Z,8.90
2019-01-13T19:14:38.706Z,8.90
2019-01-13T19:17:10.478Z,8.80
2019-01-13T19:20:12.729Z,8.80
2019-01-13T19:22:45.035Z,8.80
2019-01-13T19:25:27.056Z,8.90
2019-01-13T19:27:56.841Z,8.80
2019-01-13T19:30:26.599Z,8.80
2019-01-13T19:32:56.333Z,8.80
2019-01-13T19:35:26.166Z,8.70
2019-01-13T19:37:55.855Z,8.70
2019-01-13T19:40:25.614Z,8.70
2019-01-13T19:42:55.290Z,8.70
2019-01-13T19:45:25.085Z,8.60
2019-01-13T19:47:54.842Z,8.60
2019-01-13T19:50:25.822Z,8.60
2019-01-13T19:52:55.608Z,8.70
2019-01-13T19:55:25.514Z,8.70
2019-01-13T19:57:55.278Z,8.70
2019-01-13T20:00:33.579Z,8.80
2019-01-13T20:03:03.401Z,8.80
2019-01-13T20:05:33.167Z,8.90
2019-01-13T20:08:03.121Z,8.90
2019-01-13T20:10:32.821Z,8.80
2019-01-13T20:13:02.672Z,8.90
2019-01-13T20:15:32.562Z,8.90
2019-01-13T20:18:02.595Z,8.90
2019-01-13T20:20:32.342Z,8.90
2019-01-13T20:23:02.237Z,8.90
2019-01-13T20:25:32.074Z,8.90
2019-01-13T20:28:01.895Z,9.00
2019-01-13T20:30:33.355Z,9.00
2019-01-13T20:33:04.469Z,8.90
2019-01-13T20:35:34.229Z,9.00
2019-01-13T20:38:04.119Z,9.00
2019-01-13T20:40:33.985Z,9.10
2019-01-13T20:43:03.961Z,9.10
2019-01-13T20:45:39.838Z,9.00
2019-01-13T20:48:09.613Z,9.00
2019-01-13T20:50:39.332Z,9.10
2019-01-13T20:53:09.098Z,9.10
2019-01-13T20:55:38.782Z,9.10
2019-01-13T20:58:08.617Z,9.10
2019-01-13T21:00:38.534Z,9.10
2019-01-13T21:03:08.350Z,9.10
2019-01-13T21:05:38.174Z,9.10
2019-01-13T21:08:07.934Z,9.10
2019-01-13T21:10:37.608Z,9.00
2019-01-13T21:13:07.354Z,8.90
2019-01-13T21:15:37.701Z,8.80
2019-01-13T21:18:07.451Z,8.70
2019-01-13T21:20:37.306Z,8.70
2019-01-13T21:23:07.078Z,8.70
2019-01-13T21:25:37.811Z,8.80
2019-01-13T21:28:07.791Z,8.80
2019-01-13T21:30:37.647Z,8.70
2019-01-13T21:33:07.419Z,8.40
2019-01-13T21:35:37.258Z,8.30
2019-01-13T21:38:07.019Z,8.20
2019-01-13T21:40:36.863Z,8.30
2019-01-13T21:43:06.690Z,8.40
2019-01-13T21:45:36.586Z,8.50
2019-01-13T21:48:06.488Z,8.50
2019-01-13T21:50:36.250Z,8.30
2019-01-13T21:53:06.121Z,8.10
2019-01-13T21:55:35.935Z,8.10
2019-01-13T21:58:05.836Z,8.10
2019-01-13T22:00:35.594Z,8.10
2019-01-13T22:03:05.431Z,8.10
2019-01-13T22:05:40.976Z,8.10
2019-01-13T22:08:06.604Z,8.20
2019-01-13T22:10:36.377Z,8.30
2019-01-13T22:13:06.236Z,8.30
2019-01-13T22:15:35.925Z,8.40
2019-01-13T22:18:05.687Z,8.50
2019-01-13T22:20:35.437Z,8.60
2019-01-13T22:23:05.269Z,8.60
2019-01-13T22:25:34.958Z,8.60
2019-01-13T22:28:04.982Z,8.50
2019-01-13T22:30:34.671Z,8.50
2019-01-13T22:33:04.617Z,8.40
2019-01-13T22:35:34.402Z,8.50
2019-01-13T22:38:04.364Z,8.50
2019-01-13T22:40:34.183Z,8.50
2019-01-13T22:43:03.949Z,8.50
2019-01-13T22:45:33.610Z,8.50
2019-01-13T22:48:03.298Z,8.50
2019-01-13T22:50:33.077Z,8.50
2019-01-13T22:53:02.818Z,8.50
2019-01-13T22:55:32.505Z,8.50
2019-01-13T22:58:02.270Z,8.50
2019-01-13T23:01:14.498Z,8.50
2019-01-13T23:03:44.462Z,8.60
2019-01-13T23:06:14.249Z,8.60
2019-01-13T23:08:43.985Z,8.50
2019-01-13T23:11:13.686Z,8.50
2019-01-13T23:13:43.373Z,8.50
2019-01-13T23:16:13.067Z,8.50
2019-01-13T23:18:42.746Z,8.50
2019-01-13T23:21:12.518Z,8.50
2019-01-13T23:23:42.227Z,8.40
2019-01-13T23:26:11.904Z,8.40
2019-01-13T23:28:41.602Z,8.50
2019-01-13T23:31:11.363Z,8.50
2019-01-13T23:33:41.039Z,8.50
2019-01-13T23:36:10.718Z,8.50
2019-01-13T23:38:40.422Z,8.50
2019-01-13T23:41:10.238Z,8.50
2019-01-13T23:43:40.034Z,8.60
2019-01-13T23:46:09.776Z,8.60
2019-01-13T23:48:39.546Z,8.50
2019-01-13T23:51:09.370Z,8.40
2019-01-13T23:53:39.077Z,8.30
2019-01-13T23:56:09.021Z,8.10
2019-01-13T23:58:39.818Z,8.00
